createdAt,value
2023-04-10T00:00:39.342Z,46.85
2023-04-10T00:03:06.964Z,46.67
2023-04-10T00:05:34.277Z,46.55
2023-04-10T00:08:02.868Z,47.33
2023-04-10T00:10:31.753Z,48.22
2023-04-10T00:13:00.926Z,47.22
2023-04-10T00:15:28.829Z,47.65
2023-04-10T00:17:56.063Z,48.88
2023-04-10T00:20:23.859Z,47.67
2023-04-10T00:22:51.212Z,47.05
2023-04-10T00:25:18.395Z,48.80
2023-04-10T00:27:45.543Z,47.25
2023-04-10T00:30:12.915Z,47.95
2023-04-10T00:32:40.543Z,49.13
2023-04-10T00:35:09.278Z,50.03
2023-04-10T00:37:36.713Z,49.88
2023-04-10T00:40:06.222Z,50.97
2023-04-10T00:42:33.509Z,52.10
2023-04-10T00:45:00.985Z,51.47
2023-04-10T00:47:28.282Z,51.38
2023-04-10T00:49:55.769Z,52.60
2023-04-10T00:52:26.134Z,53.58
2023-04-10T00:54:53.196Z,52.15
2023-04-10T00:57:20.417Z,54.40
2023-04-10T00:59:48.898Z,55.05
2023-04-10T01:02:16.163Z,55.17
2023-04-10T01:04:44.170Z,56.53
2023-04-10T01:07:46.304Z,57.70
2023-04-10T01:10:16.126Z,58.95
2023-04-10T01:13:07.285Z,59.47
2023-04-10T01:15:55.640Z,59.83
2023-04-10T01:18:45.896Z,60.67
2023-04-10T01:21:16.246Z,60.95
2023-04-10T01:24:32.356Z,61.33
2023-04-10T01:27:24.844Z,61.80
2023-04-10T01:29:56.698Z,62.85
2023-04-10T01:32:25.387Z,64.03
2023-04-10T01:34:55.829Z,65.53
2023-04-10T01:37:31.603Z,64.97
2023-04-10T01:40:07.077Z,63.25
2023-04-10T01:42:47.377Z,66.90
2023-04-10T01:45:19.167Z,67.93
2023-04-10T01:47:48.915Z,66.97
2023-04-10T01:50:16.977Z,68.00
2023-04-10T01:52:45.586Z,69.38
2023-04-10T01:55:22.269Z,68.72
2023-04-10T01:57:55.082Z,68.57
2023-04-10T02:00:24.400Z,71.78
2023-04-10T02:02:52.183Z,70.95
2023-04-10T02:05:20.266Z,71.75
2023-04-10T02:08:06.374Z,72.68
2023-04-10T02:10:45.851Z,70.68
2023-04-10T02:13:16.232Z,71.35
2023-04-10T02:15:46.769Z,70.40
2023-04-10T02:18:16.991Z,68.45
2023-04-10T02:20:44.610Z,68.97
2023-04-10T02:23:16.182Z,69.72
2023-04-10T02:25:43.484Z,67.07
2023-04-10T02:28:10.649Z,67.38
2023-04-10T02:30:39.173Z,68.43
2023-04-10T02:33:06.365Z,67.38
2023-04-10T02:35:34.350Z,68.13
2023-04-10T02:38:03.439Z,66.60
2023-04-10T02:40:32.000Z,65.28
2023-04-10T02:43:19.336Z,64.90
2023-04-10T02:45:47.661Z,65.35
2023-04-10T02:48:21.564Z,66.13
2023-04-10T02:50:58.417Z,66.55
2023-04-10T02:53:26.632Z,64.80
2023-04-10T02:55:57.495Z,65.40
2023-04-10T02:58:24.568Z,64.20
2023-04-10T03:00:54.769Z,63.80
2023-04-10T03:03:43.498Z,62.55
2023-04-10T03:06:11.477Z,65.93
2023-04-10T03:08:40.806Z,63.70
2023-04-10T03:11:09.313Z,65.13
2023-04-10T03:13:36.424Z,66.78
2023-04-10T03:16:03.590Z,64.97
2023-04-10T03:18:31.965Z,67.63
2023-04-10T03:20:59.113Z,67.57
2023-04-10T03:23:26.465Z,67.53
2023-04-10T03:25:54.818Z,67.15
2023-04-10T03:28:25.062Z,68.70
2023-04-10T03:30:52.287Z,68.45
2023-04-10T03:33:19.407Z,67.75
2023-04-10T03:35:47.590Z,67.95
2023-04-10T03:38:14.783Z,70.47
2023-04-10T03:40:41.842Z,70.30
2023-04-10T03:43:10.923Z,69.45
2023-04-10T03:45:38.647Z,69.53
2023-04-10T03:48:06.624Z,69.22
2023-04-10T03:50:41.430Z,71.63
2023-04-10T03:53:08.720Z,69.95
2023-04-10T03:55:36.893Z,73.50
2023-04-10T03:58:05.570Z,71.03
2023-04-10T04:00:33.600Z,70.90
2023-04-10T04:03:18.233Z,65.57
2023-04-10T04:06:06.602Z,69.53
2023-04-10T04:08:36.261Z,68.80
2023-04-10T04:11:06.401Z,69.85
2023-04-10T04:14:11.935Z,69.10
2023-04-10T04:16:57.747Z,70.32
2023-04-10T04:19:24.956Z,68.15
2023-04-10T04:22:11.820Z,69.25
2023-04-10T04:24:57.560Z,70.18
2023-04-10T04:27:45.072Z,69.50
2023-04-10T04:30:35.421Z,69.30
2023-04-10T04:33:16.719Z,69.68
2023-04-10T04:35:57.650Z,68.97
2023-04-10T04:38:50.988Z,68.22
2023-04-10T04:41:44.120Z,69.25
2023-04-10T04:44:37.045Z,68.32
2023-04-10T04:47:16.962Z,68.85
2023-04-10T04:50:02.794Z,68.35
2023-04-10T04:52:48.970Z,68.30
2023-04-10T04:55:28.030Z,67.95
2023-04-10T04:58:17.911Z,68.20
2023-04-10T05:01:09.046Z,64.07
2023-04-10T05:04:05.470Z,65.43
2023-04-10T05:06:51.105Z,65.20
2023-04-10T05:09:38.385Z,65.78
2023-04-10T05:12:19.337Z,64.13
2023-04-10T05:14:53.817Z,63.60
2023-04-10T05:17:41.257Z,64.13
2023-04-10T05:20:16.393Z,62.80
2023-04-10T05:23:02.181Z,64.37
2023-04-10T05:25:35.916Z,62.88
2023-04-10T05:28:09.912Z,60.35
2023-04-10T05:31:01.203Z,60.45
2023-04-10T05:33:34.162Z,60.72
2023-04-10T05:36:13.383Z,60.90
2023-04-10T05:38:59.306Z,62.58
2023-04-10T05:44:25.604Z,60.53
2023-04-10T05:47:03.376Z,61.08
2023-04-10T05:49:53.642Z,60.63
2023-04-10T05:52:30.973Z,62.25
2023-04-10T05:55:04.331Z,61.80
2023-04-10T05:57:51.784Z,60.97
2023-04-10T06:00:38.509Z,61.42
2023-04-10T06:03:27.692Z,59.55
2023-04-10T06:06:00.573Z,59.80
2023-04-10T06:08:27.911Z,60.58
2023-04-10T06:10:54.917Z,58.63
2023-04-10T06:13:21.903Z,59.17
2023-04-10T06:15:51.991Z,58.92
2023-04-10T06:18:19.369Z,56.72
2023-04-10T06:20:48.632Z,57.60
2023-04-10T06:23:16.062Z,56.50
2023-04-10T06:25:43.998Z,56.72
2023-04-10T06:28:11.241Z,56.17
2023-04-10T06:30:39.246Z,56.35
2023-04-10T06:33:07.805Z,54.90
2023-04-10T06:35:39.511Z,54.80
2023-04-10T06:38:07.731Z,54.85
2023-04-10T06:40:35.948Z,54.55
2023-04-10T06:43:03.000Z,54.17
2023-04-10T06:45:36.229Z,55.28
2023-04-10T06:48:03.860Z,52.35
2023-04-10T06:50:33.260Z,51.83
2023-04-10T06:53:00.433Z,52.20
2023-04-10T06:55:27.581Z,52.58
2023-04-10T06:57:56.105Z,50.83
2023-04-10T07:00:24.111Z,50.20
2023-04-10T07:02:51.413Z,50.00
2023-04-10T07:05:18.693Z,50.00
2023-04-10T07:07:47.558Z,47.70
2023-04-10T07:10:14.648Z,49.83
2023-04-10T07:12:41.738Z,49.75
2023-04-10T07:15:09.615Z,48.50
2023-04-10T07:17:36.743Z,49.17
2023-04-10T07:20:04.847Z,48.63
2023-04-10T07:22:32.764Z,47.10
2023-04-10T07:24:59.781Z,48.38
2023-04-10T07:27:27.795Z,47.65
2023-04-10T07:29:56.825Z,45.13
2023-04-10T07:32:24.569Z,45.40
2023-04-10T07:34:51.862Z,45.53
2023-04-10T07:37:18.877Z,45.33
2023-04-10T07:39:45.892Z,43.50
2023-04-10T07:42:13.083Z,42.33
2023-04-10T07:44:40.275Z,42.17
2023-04-10T07:47:07.316Z,41.38
2023-04-10T07:49:34.308Z,39.70
2023-04-10T07:52:01.744Z,40.33
2023-04-10T07:54:32.013Z,37.72
2023-04-10T07:56:59.192Z,36.28
2023-04-10T07:59:28.279Z,35.90
2023-04-10T08:01:55.757Z,35.60
2023-04-10T08:04:23.144Z,35.20
2023-04-10T08:06:50.514Z,33.15
2023-04-10T08:09:17.938Z,32.05
2023-04-10T08:11:45.103Z,29.38
2023-04-10T08:14:13.478Z,28.48
2023-04-10T08:16:45.635Z,26.77
2023-04-10T08:19:12.880Z,28.05
2023-04-10T08:21:40.086Z,25.83
2023-04-10T08:24:07.074Z,25.38
2023-04-10T08:26:34.139Z,25.58
2023-04-10T08:29:01.329Z,24.92
2023-04-10T08:31:29.479Z,23.20
2023-04-10T08:33:57.721Z,22.17
2023-04-10T08:36:26.572Z,21.05
2023-04-10T08:38:53.677Z,18.58
2023-04-10T08:41:21.289Z,17.77
2023-04-10T08:43:49.834Z,18.17
2023-04-10T08:46:17.159Z,17.85
2023-04-10T08:48:52.813Z,17.83
2023-04-10T08:51:26.247Z,17.42
2023-04-10T08:54:00.052Z,18.00
2023-04-10T08:56:27.641Z,17.10
2023-04-10T08:58:55.226Z,17.35
2023-04-10T09:01:22.884Z,16.45
2023-04-10T09:03:50.281Z,17.15
2023-04-10T09:06:17.389Z,16.08
2023-04-10T09:08:44.424Z,16.40
2023-04-10T09:11:13.189Z,15.77
2023-04-10T09:13:45.073Z,15.23
2023-04-10T09:16:13.852Z,14.52
2023-04-10T09:18:48.925Z,13.90
2023-04-10T09:21:19.595Z,14.55
2023-04-10T09:23:48.594Z,13.93
2023-04-10T09:26:33.492Z,13.35
2023-04-10T09:29:06.245Z,13.77
2023-04-10T09:31:36.206Z,13.00
2023-04-10T09:34:23.352Z,13.20
2023-04-10T09:36:58.747Z,13.98
2023-04-10T09:39:43.084Z,12.88
2023-04-10T09:42:11.663Z,13.35
2023-04-10T09:44:40.656Z,13.32
2023-04-10T09:47:13.872Z,12.75
2023-04-10T09:49:56.505Z,12.60
2023-04-10T09:52:27.121Z,12.88
2023-04-10T09:55:03.972Z,12.77
2023-04-10T09:57:33.664Z,12.27
2023-04-10T10:00:05.372Z,13.18
2023-04-10T10:02:41.363Z,12.52
2023-04-10T10:05:10.179Z,12.13
2023-04-10T10:07:38.654Z,11.80
2023-04-10T10:10:08.926Z,11.75
2023-04-10T10:12:51.978Z,11.18
2023-04-10T10:15:51.084Z,10.38
2023-04-10T10:19:00.274Z,10.80
2023-04-10T10:21:29.323Z,11.07
2023-04-10T10:23:59.907Z,10.68
2023-04-10T10:26:29.215Z,8.70
2023-04-10T10:28:58.472Z,8.98
2023-04-10T10:31:32.543Z,8.75
2023-04-10T10:34:04.821Z,8.73
2023-04-10T10:36:32.233Z,8.85
2023-04-10T10:39:17.721Z,8.45
2023-04-10T10:42:01.706Z,8.38
2023-04-10T10:45:02.868Z,8.10
2023-04-10T10:47:32.926Z,8.30
2023-04-10T10:50:02.358Z,7.43
2023-04-10T10:52:42.387Z,7.20
2023-04-10T10:55:39.616Z,6.90
2023-04-10T10:58:08.901Z,7.40
2023-04-10T11:00:51.368Z,6.97
2023-04-10T11:03:18.639Z,7.43
2023-04-10T11:05:57.228Z,7.07
2023-04-10T11:08:33.378Z,7.35
2023-04-10T11:11:07.751Z,7.40
2023-04-10T11:13:40.519Z,6.90
2023-04-10T11:16:10.801Z,6.63
2023-04-10T11:18:53.438Z,6.35
2023-04-10T11:21:29.763Z,5.97
2023-04-10T11:23:56.749Z,5.93
2023-04-10T11:26:35.640Z,6.22
2023-04-10T11:29:03.594Z,5.70
2023-04-10T11:31:31.344Z,5.15
2023-04-10T11:34:05.203Z,6.18
2023-04-10T11:36:34.432Z,6.28
2023-04-10T11:39:05.978Z,5.68
2023-04-10T11:41:36.713Z,5.18
2023-04-10T11:44:12.937Z,5.80
2023-04-10T11:46:42.443Z,5.75
2023-04-10T11:49:11.186Z,5.50
2023-04-10T11:51:46.187Z,5.45
2023-04-10T11:54:16.876Z,5.63
2023-04-10T11:56:56.222Z,5.63
2023-04-10T11:59:23.808Z,5.65
2023-04-10T12:01:56.244Z,5.63
2023-04-10T12:04:24.353Z,5.40
2023-04-10T12:06:57.561Z,5.22
2023-04-10T12:09:24.806Z,5.18
2023-04-10T12:11:55.207Z,5.45
2023-04-10T12:14:23.944Z,5.10
2023-04-10T12:16:52.816Z,5.65
2023-04-10T12:19:20.736Z,4.88
2023-04-10T12:21:48.520Z,5.50
2023-04-10T12:24:46.288Z,5.72
2023-04-10T12:27:27.830Z,5.80
2023-04-10T12:29:57.888Z,5.28
2023-04-10T12:32:27.758Z,5.28
2023-04-10T12:34:59.331Z,5.32
2023-04-10T12:37:51.068Z,5.50
2023-04-10T12:40:20.547Z,4.75
2023-04-10T12:42:47.798Z,4.97
2023-04-10T12:45:15.385Z,5.18
2023-04-10T12:47:53.648Z,5.45
2023-04-10T12:50:21.060Z,5.10
2023-04-10T12:53:07.464Z,5.10
2023-04-10T12:58:27.975Z,4.88
2023-04-10T13:01:03.746Z,4.63
2023-04-10T13:03:32.083Z,5.45
2023-04-10T13:05:59.592Z,4.75
2023-04-10T13:08:26.828Z,4.90
2023-04-10T13:10:55.025Z,5.40
2023-04-10T13:13:22.048Z,5.03
2023-04-10T13:15:49.567Z,4.95
2023-04-10T13:18:16.742Z,4.85
2023-04-10T13:20:43.797Z,4.88
2023-04-10T13:23:10.984Z,5.50
2023-04-10T13:25:40.614Z,5.25
2023-04-10T13:28:15.858Z,5.53
2023-04-10T13:30:42.972Z,5.45
2023-04-10T13:33:10.682Z,5.38
2023-04-10T13:35:40.137Z,5.28
2023-04-10T13:38:09.218Z,5.00
2023-04-10T13:40:36.500Z,5.00
2023-04-10T13:43:03.891Z,5.00
2023-04-10T13:45:31.308Z,5.10
2023-04-10T13:47:58.461Z,5.25
2023-04-10T13:50:25.705Z,4.80
2023-04-10T13:52:53.771Z,5.03
2023-04-10T13:55:21.089Z,5.50
2023-04-10T13:57:48.273Z,5.00
2023-04-10T14:00:15.652Z,5.03
2023-04-10T14:02:42.821Z,5.35
2023-04-10T14:05:10.501Z,4.85
2023-04-10T14:07:37.647Z,5.45
2023-04-10T14:10:05.317Z,5.28
2023-04-10T14:12:32.396Z,4.68
2023-04-10T14:14:59.708Z,5.30
2023-04-10T14:17:28.022Z,5.20
2023-04-10T14:19:55.098Z,5.15
2023-04-10T14:22:22.203Z,5.38
2023-04-10T14:24:51.125Z,4.85
2023-04-10T14:27:19.760Z,4.78
2023-04-10T14:29:54.196Z,4.80
2023-04-10T14:32:22.238Z,4.57
2023-04-10T14:34:49.521Z,4.68
2023-04-10T14:37:18.957Z,4.93
2023-04-10T14:39:46.090Z,4.97
2023-04-10T14:42:13.304Z,5.25
2023-04-10T14:44:40.421Z,5.20
2023-04-10T14:47:08.042Z,5.15
2023-04-10T14:49:35.072Z,4.68
2023-04-10T14:52:02.041Z,4.93
2023-04-10T14:54:29.056Z,4.65
2023-04-10T14:56:58.251Z,4.65
2023-04-10T14:59:25.342Z,4.78
2023-04-10T15:01:53.986Z,5.13
2023-04-10T15:04:21.265Z,5.05
2023-04-10T15:06:48.365Z,5.13
2023-04-10T15:09:15.306Z,4.53
2023-04-10T15:11:42.382Z,4.40
2023-04-10T15:14:09.414Z,4.47
2023-04-10T15:16:36.428Z,5.03
2023-04-10T15:19:03.542Z,5.10
2023-04-10T15:21:31.423Z,5.10
2023-04-10T15:23:58.402Z,4.90
2023-04-10T15:26:25.354Z,5.38
2023-04-10T15:28:52.748Z,5.38
2023-04-10T15:31:23.596Z,5.18
2023-04-10T15:33:52.314Z,5.32
2023-04-10T15:36:19.727Z,4.38
2023-04-10T15:38:48.735Z,4.80
2023-04-10T15:41:17.168Z,4.43
2023-04-10T15:43:44.269Z,4.55
2023-04-10T15:46:11.492Z,4.30
2023-04-10T15:48:38.532Z,4.25
2023-04-10T15:51:06.998Z,4.60
2023-04-10T15:53:35.211Z,4.95
2023-04-10T15:56:05.569Z,4.70
2023-04-10T15:58:33.676Z,5.22
2023-04-10T16:01:01.526Z,4.47
2023-04-10T16:03:30.158Z,5.18
2023-04-10T16:05:58.451Z,4.75
2023-04-10T16:08:26.357Z,4.38
2023-04-10T16:10:53.796Z,4.35
2023-04-10T16:13:20.944Z,4.22
2023-04-10T16:15:49.268Z,4.15
2023-04-10T16:18:16.426Z,4.60
2023-04-10T16:20:43.822Z,4.65
2023-04-10T16:23:10.990Z,4.47
2023-04-10T16:25:37.952Z,5.07
2023-04-10T16:28:07.825Z,5.05
2023-04-10T16:30:36.339Z,4.97
2023-04-10T16:33:04.113Z,5.35
2023-04-10T16:35:31.723Z,5.60
2023-04-10T16:37:58.905Z,5.55
2023-04-10T16:40:32.501Z,5.55
2023-04-10T16:43:01.774Z,5.63
2023-04-10T16:45:29.027Z,6.05
2023-04-10T16:47:56.333Z,7.07
2023-04-10T16:50:23.437Z,7.35
2023-04-10T16:52:50.595Z,6.75
2023-04-10T16:55:18.049Z,6.97
2023-04-10T16:57:46.258Z,6.60
2023-04-10T17:00:13.925Z,7.60
2023-04-10T17:02:42.779Z,7.65
2023-04-10T17:05:11.078Z,7.35
2023-04-10T17:07:38.322Z,7.25
2023-04-10T17:10:05.916Z,7.50
2023-04-10T17:12:32.888Z,7.97
2023-04-10T17:15:00.173Z,7.90
2023-04-10T17:17:27.411Z,7.38
2023-04-10T17:19:54.700Z,7.15
2023-04-10T17:22:23.260Z,7.22
2023-04-10T17:24:50.624Z,6.53
2023-04-10T17:27:17.840Z,7.15
2023-04-10T17:29:45.005Z,6.40
2023-04-10T17:32:12.237Z,6.70
2023-04-10T17:34:39.688Z,6.80
2023-04-10T17:37:06.776Z,6.75
2023-04-10T17:39:34.006Z,6.70
2023-04-10T17:42:01.485Z,6.53
2023-04-10T17:44:28.506Z,6.38
2023-04-10T17:46:55.763Z,6.30
2023-04-10T17:49:22.989Z,6.28
2023-04-10T17:51:50.148Z,6.55
2023-04-10T17:54:17.246Z,6.63
2023-04-10T17:56:44.341Z,7.82
2023-04-10T17:59:11.308Z,8.13
2023-04-10T18:01:38.583Z,7.20
2023-04-10T18:04:07.313Z,7.40
2023-04-10T18:06:34.605Z,5.90
2023-04-10T18:09:01.870Z,5.32
2023-04-10T18:11:29.797Z,5.03
2023-04-10T18:13:57.035Z,5.85
2023-04-10T18:16:24.331Z,17.13
2023-04-10T18:18:51.411Z,21.95
2023-04-10T18:21:18.564Z,34.15
2023-04-10T18:23:46.104Z,33.88
2023-04-10T18:26:13.520Z,44.78
2023-04-10T18:28:42.211Z,39.40
2023-04-10T18:31:09.569Z,25.88
2023-04-10T18:33:36.636Z,11.98
2023-04-10T18:36:04.013Z,7.35
2023-04-10T18:38:31.199Z,7.07
2023-04-10T18:40:58.850Z,6.55
2023-04-10T18:43:27.518Z,6.72
2023-04-10T18:45:55.296Z,7.63
2023-04-10T18:48:22.457Z,7.65
2023-04-10T18:50:53.328Z,7.72
2023-04-10T18:53:21.655Z,6.90
2023-04-10T18:55:51.148Z,6.72
2023-04-10T18:58:20.222Z,6.45
2023-04-10T19:00:47.973Z,6.85
2023-04-10T19:03:15.588Z,7.18
2023-04-10T19:05:43.586Z,6.97
2023-04-10T19:08:14.685Z,8.65
2023-04-10T19:10:43.031Z,13.07
2023-04-10T19:13:12.095Z,14.95
2023-04-10T19:15:45.165Z,17.80
2023-04-10T19:18:14.080Z,17.30
2023-04-10T19:20:52.070Z,14.95
2023-04-10T19:23:21.247Z,13.00
2023-04-10T19:25:55.181Z,11.35
2023-04-10T19:28:23.801Z,10.20
2023-04-10T19:30:50.866Z,8.23
2023-04-10T19:33:19.305Z,7.20
2023-04-10T19:35:46.641Z,7.93
2023-04-10T19:38:13.790Z,7.72
2023-04-10T19:40:40.955Z,7.15
2023-04-10T19:43:08.106Z,7.55
2023-04-10T19:45:39.287Z,7.43
2023-04-10T19:48:08.151Z,7.53
2023-04-10T19:50:35.690Z,7.20
2023-04-10T19:53:02.822Z,7.40
2023-04-10T19:55:29.987Z,7.45
2023-04-10T19:57:57.134Z,7.60
2023-04-10T20:00:24.196Z,7.90
2023-04-10T20:02:51.639Z,7.65
2023-04-10T20:05:19.084Z,7.63
2023-04-10T20:07:46.082Z,6.75
2023-04-10T20:10:13.186Z,6.15
2023-04-10T20:12:40.369Z,6.30
2023-04-10T20:15:08.869Z,6.93
2023-04-10T20:17:36.006Z,7.00
2023-04-10T20:20:03.480Z,6.95
2023-04-10T20:22:30.728Z,7.00
2023-04-10T20:24:57.757Z,7.10
2023-04-10T20:27:24.918Z,7.03
2023-04-10T20:29:51.973Z,7.25
2023-04-10T20:32:19.002Z,6.68
2023-04-10T20:34:46.064Z,6.65
2023-04-10T20:37:17.284Z,6.15
2023-04-10T20:39:44.507Z,6.63
2023-04-10T20:42:11.614Z,6.10
2023-04-10T20:44:38.899Z,6.03
2023-04-10T20:47:06.733Z,6.03
2023-04-10T20:49:34.069Z,6.13
2023-04-10T20:52:01.134Z,5.72
2023-04-10T20:54:28.138Z,5.38
2023-04-10T20:56:56.884Z,5.13
2023-04-10T20:59:23.895Z,4.82
2023-04-10T21:01:50.914Z,5.00
2023-04-10T21:04:18.173Z,5.03
2023-04-10T21:06:45.310Z,5.13
2023-04-10T21:09:12.462Z,5.13
2023-04-10T21:11:39.504Z,4.55
2023-04-10T21:14:06.555Z,4.97
2023-04-10T21:16:34.850Z,4.85
2023-04-10T21:19:01.966Z,5.00
2023-04-10T21:21:30.311Z,4.95
2023-04-10T21:23:57.575Z,5.25
2023-04-10T21:26:24.647Z,4.75
2023-04-10T21:28:51.748Z,5.35
2023-04-10T21:31:19.024Z,5.25
2023-04-10T21:33:46.240Z,4.80
2023-04-10T21:36:13.592Z,5.25
2023-04-10T21:38:40.802Z,5.10
2023-04-10T21:41:08.159Z,4.90
2023-04-10T21:43:35.320Z,5.75
2023-04-10T21:46:03.053Z,5.45
2023-04-10T21:48:30.407Z,5.65
2023-04-10T21:50:57.493Z,5.88
2023-04-10T21:53:24.604Z,6.55
2023-04-10T21:55:52.403Z,6.20
2023-04-10T21:58:19.755Z,6.20
2023-04-10T22:00:47.481Z,6.25
2023-04-10T22:03:20.303Z,6.07
2023-04-10T22:05:48.920Z,6.85
2023-04-10T22:08:18.214Z,6.63
2023-04-10T22:10:47.174Z,6.75
2023-04-10T22:13:27.542Z,7.20
2023-04-10T22:15:58.085Z,6.82
2023-04-10T22:18:25.192Z,7.32
2023-04-10T22:20:52.138Z,6.88
2023-04-10T22:23:19.440Z,7.68
2023-04-10T22:25:46.450Z,7.22
2023-04-10T22:28:13.667Z,7.30
2023-04-10T22:30:40.707Z,7.70
2023-04-10T22:33:07.766Z,7.60
2023-04-10T22:35:34.974Z,7.40
2023-04-10T22:38:03.853Z,7.50
2023-04-10T22:40:31.453Z,8.00
2023-04-10T22:42:58.440Z,8.20
2023-04-10T22:45:25.567Z,7.57
2023-04-10T22:47:52.538Z,7.50
2023-04-10T22:50:19.692Z,7.22
2023-04-10T22:52:46.847Z,8.07
2023-04-10T22:55:14.427Z,7.85
2023-04-10T22:57:41.590Z,8.48
2023-04-10T23:00:09.357Z,7.88
2023-04-10T23:02:36.777Z,7.88
2023-04-10T23:05:04.393Z,8.20
2023-04-10T23:07:31.545Z,8.05
2023-04-10T23:10:00.255Z,4.15
2023-04-10T23:12:27.360Z,2.78
2023-04-10T23:14:54.482Z,2.50
2023-04-10T23:17:21.496Z,2.80
2023-04-10T23:19:48.609Z,2.40
2023-04-10T23:22:15.654Z,2.38
2023-04-10T23:24:42.651Z,2.70
2023-04-10T23:27:09.573Z,2.50
2023-04-10T23:29:36.564Z,2.30
2023-04-10T23:32:03.736Z,1.92
2023-04-10T23:34:30.967Z,2.03
2023-04-10T23:36:58.270Z,2.03
2023-04-10T23:39:25.241Z,1.70
2023-04-10T23:41:52.371Z,1.63
2023-04-10T23:44:20.678Z,2.38
2023-04-10T23:46:49.442Z,2.10
2023-04-10T23:49:17.314Z,1.98
2023-04-10T23:51:45.535Z,2.00
2023-04-10T23:54:13.436Z,1.83
2023-04-10T23:56:41.445Z,2.15
2023-04-10T23:59:08.494Z,2.10
